Portada
METAR-TAF:

METAR-TAF

Aeroports :

Aeroport de Roma-Fiumicino

Roma-Fiumicino, Itàlia

latitud: 41-48N, longitud: 012-14E, altitud: 2 m

Observació

L'informe es va fer fa 38 minuts, a les 16:20 UTC
Vent 6 kt del Est/Nord-Est
Temperatura 8°C
Humitat 61%
Pressió 1017 hPa
Visibilitat 10 km o més
sense núvols per sota de 1500 mi sense presència de cumulonimbus.

METAR: LIRF 121620Z 07006KT CAVOK 08/01 Q1017 NOSIG

Hora: 17:58 (16:58 UTC)

Pronòstic

L'informe es va fer fa 5 hores i 58 minuts, a les 11:00 UTC
Pronòstic vàlid del 12 a les 12 UTC al 13 a les 18 UTC
Vent 8 kt del Est
Visibilitat 10 km o més
Núvols disperses a una alçada de 3000 ft
Temporalment
l' 12 a les 21 UTC al 13 a les 09 UTC
pluja

TAF: LIRF 121100Z 1212/1318 10008KT 9999 SCT030 TEMPO 1221/1309 RA

Observacions i pronòstics meteorològics de més de 4000 aeroports (METAR i TAF).

Les estacions disponibles són els punts grocs i vermells al mapa.

Posi el ratolí al punt desitjat per veure el nom de l'estació.

Feu clic per veure les observacions i els pronòstics meteorològics.

Per canviar el mapa: feu clic els botons verds amb una creu de color negre per apropar; al botó verd amb un guió per allunyar la imatge; o en les fletxes verdes per a mapes adjacents.


METAR-TAF: